Airfield :
LOGIN :

Register | Disclaimer

   EN    FR    IT 

 










Legend :    VFR   Marginal VFR   IFR   Intensive IFR   Very Intensive IFR
Visi :
Ceiling :
>= 8 km
>= 3000ft
5 to 8 km
1000 to 3000 ft
1500m to 5 km
500 to 1000 ft
800 to 1500m
200 to 500 ft
< 800m
< 200 ft
Symbols :   Thunderstorms  Fog  Heavy snow  Heavy precipitations  Wind > 20 kt
SIGMETs :     Misc.  Thunderstorms  Icing  Turbulence  Mountain Waves  Volcanic Ashes






- Airport Elevation : 388 ft
- IATA code : QYR


LFQB - Troyes Barberey

CURRENT METAR :
  • 231330Z AUTO 22018KT 9999 SCT019 OVC024 12/08 Q1025

EXPIRED METARs :
  • 231300Z AUTO 21017KT 9999 BKN017 BKN045 OVC170 11/08 Q1025
  • 231230Z AUTO 20013KT 9999 OVC016 11/08 Q1025
  • 231200Z AUTO 21012KT 9999 OVC015 11/08 Q1026
  • 231130Z AUTO 22014KT 9999 OVC014 11/08 Q1026
  • 231100Z AUTO 21014KT 9999 OVC013 10/08 Q1026

TAF N/A



MET'MAP, your aeronautical weather chart ! - Copyright ORBIFLY December 2007 - Disclaimer

ORBIFLY MET'MAP TEAM :

Programming & Development : Alexandra Zaïnal
Concept & original design : Baudouin d'Aumeries
Assistance for programming : Marc-Olivier Méhu
Technical & hardware support : Manuel Goepfert

Contact : metmap@orbifly.com




SOURCES & CREDITS :

   NOAA